sensor_id;sensor_type;location;lat;lon;timestamp;P1;durP1;ratioP1;P2;durP2;ratioP2
23163;SDS011;31429;42.674;23.350;2023-04-03T00:00:42;20.57;;;13.50;;
23163;SDS011;31429;42.674;23.350;2023-04-03T00:01:42;19.10;;;11.32;;
23163;SDS011;31429;42.674;23.350;2023-04-03T00:02:43;17.53;;;12.40;;
23163;SDS011;31429;42.674;23.350;2023-04-03T00:03:44;18.88;;;13.43;;
23163;SDS011;31429;42.674;23.350;2023-04-03T00:04:45;19.03;;;11.23;;
23163;SDS011;31429;42.674;23.350;2023-04-03T00:05:46;14.77;;;9.70;;
23163;SDS011;31429;42.674;23.350;2023-04-03T00:06:47;16.00;;;9.27;;
23163;SDS011;31429;42.674;23.350;2023-04-03T00:07:47;14.93;;;9.03;;
23163;SDS011;31429;42.674;23.350;2023-04-03T00:08:49;16.95;;;11.55;;
23163;SDS011;31429;42.674;23.350;2023-04-03T00:09:50;18.77;;;11.50;;
23163;SDS011;31429;42.674;23.350;2023-04-03T00:10:51;13.93;;;9.97;;
23163;SDS011;31429;42.674;23.350;2023-04-03T00:11:52;20.20;;;11.27;;
23163;SDS011;31429;42.674;23.350;2023-04-03T00:12:52;20.83;;;11.57;;
23163;SDS011;31429;42.674;23.350;2023-04-03T00:13:53;15.07;;;11.23;;
23163;SDS011;31429;42.674;23.350;2023-04-03T00:14:53;19.37;;;12.50;;
23163;SDS011;31429;42.674;23.350;2023-04-03T00:15:55;17.60;;;12.20;;
23163;SDS011;31429;42.674;23.350;2023-04-03T00:16:56;18.88;;;11.88;;
23163;SDS011;31429;42.674;23.350;2023-04-03T00:17:57;16.97;;;10.73;;
23163;SDS011;31429;42.674;23.350;2023-04-03T00:18:57;16.43;;;10.37;;
23163;SDS011;31429;42.674;23.350;2023-04-03T00:19:58;17.73;;;10.07;;
23163;SDS011;31429;42.674;23.350;2023-04-03T00:20:59;16.15;;;10.52;;
23163;SDS011;31429;42.674;23.350;2023-04-03T00:22:00;15.05;;;10.57;;
23163;SDS011;31429;42.674;23.350;2023-04-03T00:23:01;14.47;;;8.40;;
23163;SDS011;31429;42.674;23.350;2023-04-03T00:24:02;11.77;;;7.05;;
23163;SDS011;31429;42.674;23.350;2023-04-03T00:25:03;13.27;;;8.03;;
23163;SDS011;31429;42.674;23.350;2023-04-03T00:26:04;19.73;;;10.32;;
23163;SDS011;31429;42.674;23.350;2023-04-03T00:27:05;15.93;;;10.60;;
23163;SDS011;31429;42.674;23.350;2023-04-03T00:28:06;17.53;;;11.13;;
23163;SDS011;31429;42.674;23.350;2023-04-03T00:29:07;17.80;;;11.57;;
23163;SDS011;31429;42.674;23.350;2023-04-03T00:30:08;18.27;;;11.20;;
23163;SDS011;31429;42.674;23.350;2023-04-03T00:31:14;20.75;;;12.02;;
23163;SDS011;31429;42.674;23.350;2023-04-03T00:32:16;14.50;;;10.25;;
23163;SDS011;31429;42.674;23.350;2023-04-03T00:33:17;19.47;;;10.33;;
23163;SDS011;31429;42.674;23.350;2023-04-03T00:34:21;16.83;;;11.27;;
23163;SDS011;31429;42.674;23.350;2023-04-03T00:35:22;14.83;;;10.03;;
23163;SDS011;31429;42.674;23.350;2023-04-03T00:36:23;15.27;;;10.43;;
23163;SDS011;31429;42.674;23.350;2023-04-03T00:37:24;13.50;;;9.97;;
23163;SDS011;31429;42.674;23.350;2023-04-03T00:38:25;14.40;;;10.77;;
23163;SDS011;31429;42.674;23.350;2023-04-03T00:39:26;16.90;;;10.57;;
23163;SDS011;31429;42.674;23.350;2023-04-03T00:40:27;14.97;;;10.33;;
23163;SDS011;31429;42.674;23.350;2023-04-03T00:41:28;15.70;;;10.57;;
23163;SDS011;31429;42.674;23.350;2023-04-03T00:42:28;15.93;;;10.67;;
23163;SDS011;31429;42.674;23.350;2023-04-03T00:43:29;17.02;;;11.18;;
23163;SDS011;31429;42.674;23.350;2023-04-03T00:46:08;16.90;;;10.77;;
23163;SDS011;31429;42.674;23.350;2023-04-03T00:47:10;18.80;;;10.40;;
23163;SDS011;31429;42.674;23.350;2023-04-03T00:48:14;16.83;;;10.15;;
23163;SDS011;31429;42.674;23.350;2023-04-03T00:49:17;17.48;;;10.80;;
23163;SDS011;31429;42.674;23.350;2023-04-03T00:50:17;14.30;;;10.13;;
23163;SDS011;31429;42.674;23.350;2023-04-03T00:51:19;16.93;;;10.20;;
23163;SDS011;31429;42.674;23.350;2023-04-03T00:52:25;16.10;;;10.93;;
23163;SDS011;31429;42.674;23.350;2023-04-03T00:53:29;15.15;;;10.27;;
23163;SDS011;31429;42.674;23.350;2023-04-03T00:54:33;16.83;;;11.15;;
23163;SDS011;31429;42.674;23.350;2023-04-03T00:55:36;18.10;;;10.15;;
23163;SDS011;31429;42.674;23.350;2023-04-03T00:56:38;17.88;;;11.45;;
23163;SDS011;31429;42.674;23.350;2023-04-03T00:57:39;14.47;;;10.07;;
23163;SDS011;31429;42.674;23.350;2023-04-03T00:58:41;16.80;;;10.40;;
23163;SDS011;31429;42.674;23.350;2023-04-03T00:59:46;19.25;;;10.27;;
23163;SDS011;31429;42.674;23.350;2023-04-03T01:00:52;13.63;;;9.68;;
23163;SDS011;31429;42.674;23.350;2023-04-03T01:01:57;13.85;;;9.60;;
23163;SDS011;31429;42.674;23.350;2023-04-03T01:03:01;11.95;;;9.45;;
23163;SDS011;31429;42.674;23.350;2023-04-03T01:04:02;14.20;;;9.77;;
23163;SDS011;31429;42.674;23.350;2023-04-03T01:05:03;16.08;;;10.00;;
23163;SDS011;31429;42.674;23.350;2023-04-03T01:06:04;13.48;;;9.13;;
23163;SDS011;31429;42.674;23.350;2023-04-03T01:07:07;12.93;;;9.45;;
23163;SDS011;31429;42.674;23.350;2023-04-03T01:08:10;13.75;;;9.90;;
23163;SDS011;31429;42.674;23.350;2023-04-03T01:09:11;14.10;;;9.80;;
23163;SDS011;31429;42.674;23.350;2023-04-03T01:10:13;11.77;;;8.93;;
23163;SDS011;31429;42.674;23.350;2023-04-03T01:11:16;10.00;;;7.82;;
23163;SDS011;31429;42.674;23.350;2023-04-03T01:12:17;11.17;;;8.33;;
23163;SDS011;31429;42.674;23.350;2023-04-03T01:13:21;11.95;;;7.75;;
23163;SDS011;31429;42.674;23.350;2023-04-03T01:14:24;12.57;;;7.97;;
23163;SDS011;31429;42.674;23.350;2023-04-03T01:15:25;9.10;;;7.40;;
23163;SDS011;31429;42.674;23.350;2023-04-03T01:16:30;10.15;;;7.90;;
23163;SDS011;31429;42.674;23.350;2023-04-03T01:17:32;9.75;;;6.93;;
23163;SDS011;31429;42.674;23.350;2023-04-03T01:18:37;7.43;;;6.57;;
23163;SDS011;31429;42.674;23.350;2023-04-03T01:19:39;9.60;;;7.38;;
23163;SDS011;31429;42.674;23.350;2023-04-03T01:22:29;9.18;;;6.45;;
23163;SDS011;31429;42.674;23.350;2023-04-03T01:23:37;10.70;;;7.03;;
23163;SDS011;31429;42.674;23.350;2023-04-03T01:24:47;11.40;;;6.68;;
23163;SDS011;31429;42.674;23.350;2023-04-03T01:25:49;8.10;;;6.43;;
23163;SDS011;31429;42.674;23.350;2023-04-03T01:26:51;9.25;;;7.10;;
23163;SDS011;31429;42.674;23.350;2023-04-03T01:27:51;10.43;;;7.17;;
23163;SDS011;31429;42.674;23.350;2023-04-03T01:28:53;10.00;;;6.95;;
23163;SDS011;31429;42.674;23.350;2023-04-03T01:29:54;14.80;;;8.43;;
23163;SDS011;31429;42.674;23.350;2023-04-03T01:30:58;13.57;;;7.25;;
23163;SDS011;31429;42.674;23.350;2023-04-03T01:32:05;10.00;;;7.10;;
23163;SDS011;31429;42.674;23.350;2023-04-03T01:33:06;9.95;;;6.72;;
23163;SDS011;31429;42.674;23.350;2023-04-03T01:34:06;10.30;;;7.07;;
23163;SDS011;31429;42.674;23.350;2023-04-03T01:35:07;9.53;;;6.97;;
23163;SDS011;31429;42.674;23.350;2023-04-03T01:36:09;11.30;;;7.63;;
23163;SDS011;31429;42.674;23.350;2023-04-03T01:37:15;9.13;;;7.55;;
23163;SDS011;31429;42.674;23.350;2023-04-03T01:38:16;8.17;;;6.47;;
23163;SDS011;31429;42.674;23.350;2023-04-03T01:39:17;10.63;;;7.17;;
23163;SDS011;31429;42.674;23.350;2023-04-03T01:40:18;11.52;;;7.25;;
23163;SDS011;31429;42.674;23.350;2023-04-03T01:41:19;13.10;;;7.47;;
23163;SDS011;31429;42.674;23.350;2023-04-03T01:42:21;9.57;;;6.85;;
23163;SDS011;31429;42.674;23.350;2023-04-03T01:43:21;11.23;;;8.33;;
23163;SDS011;31429;42.674;23.350;2023-04-03T01:44:22;9.70;;;7.00;;
23163;SDS011;31429;42.674;23.350;2023-04-03T01:45:23;10.03;;;7.50;;
23163;SDS011;31429;42.674;23.350;2023-04-03T01:46:23;8.07;;;6.97;;
23163;SDS011;31429;42.674;23.350;2023-04-03T01:47:25;8.83;;;6.87;;
23163;SDS011;31429;42.674;23.350;2023-04-03T01:48:26;10.68;;;7.93;;
23163;SDS011;31429;42.674;23.350;2023-04-03T01:49:27;12.50;;;8.03;;
23163;SDS011;31429;42.674;23.350;2023-04-03T01:50:27;10.20;;;7.57;;
23163;SDS011;31429;42.674;23.350;2023-04-03T01:51:28;18.03;;;8.60;;
23163;SDS011;31429;42.674;23.350;2023-04-03T01:52:29;11.23;;;8.00;;
23163;SDS011;31429;42.674;23.350;2023-04-03T01:53:30;15.35;;;7.85;;
23163;SDS011;31429;42.674;23.350;2023-04-03T01:54:30;10.97;;;7.17;;
23163;SDS011;31429;42.674;23.350;2023-04-03T01:55:31;11.80;;;8.23;;
23163;SDS011;31429;42.674;23.350;2023-04-03T01:56:32;11.70;;;8.60;;
23163;SDS011;31429;42.674;23.350;2023-04-03T01:57:32;12.80;;;7.97;;
23163;SDS011;31429;42.674;23.350;2023-04-03T01:58:33;9.90;;;7.93;;
23163;SDS011;31429;42.674;23.350;2023-04-03T01:59:34;11.63;;;8.33;;
23163;SDS011;31429;42.674;23.350;2023-04-03T02:00:35;9.40;;;7.43;;
23163;SDS011;31429;42.674;23.350;2023-04-03T02:01:36;11.65;;;8.93;;
23163;SDS011;31429;42.674;23.350;2023-04-03T02:02:38;10.93;;;8.40;;
23163;SDS011;31429;42.674;23.350;2023-04-03T02:03:38;13.40;;;8.77;;
23163;SDS011;31429;42.674;23.350;2023-04-03T02:04:39;11.90;;;8.60;;
23163;SDS011;31429;42.674;23.350;2023-04-03T02:05:40;13.80;;;9.30;;
23163;SDS011;31429;42.674;23.350;2023-04-03T02:06:41;14.13;;;9.30;;
23163;SDS011;31429;42.674;23.350;2023-04-03T02:07:41;12.63;;;8.47;;
23163;SDS011;31429;42.674;23.350;2023-04-03T02:08:42;13.83;;;9.70;;
23163;SDS011;31429;42.674;23.350;2023-04-03T02:09:42;13.13;;;9.13;;
23163;SDS011;31429;42.674;23.350;2023-04-03T02:10:43;13.33;;;9.50;;
23163;SDS011;31429;42.674;23.350;2023-04-03T02:11:45;12.77;;;9.48;;
23163;SDS011;31429;42.674;23.350;2023-04-03T02:12:45;14.80;;;10.10;;
23163;SDS011;31429;42.674;23.350;2023-04-03T02:13:46;14.93;;;9.80;;
23163;SDS011;31429;42.674;23.350;2023-04-03T02:14:47;10.67;;;8.77;;
23163;SDS011;31429;42.674;23.350;2023-04-03T02:15:47;13.73;;;10.00;;
23163;SDS011;31429;42.674;23.350;2023-04-03T02:16:48;13.73;;;9.20;;
23163;SDS011;31429;42.674;23.350;2023-04-03T02:17:50;13.97;;;9.47;;
23163;SDS011;31429;42.674;23.350;2023-04-03T02:18:51;14.60;;;9.35;;
23163;SDS011;31429;42.674;23.350;2023-04-03T02:19:51;14.30;;;10.43;;
23163;SDS011;31429;42.674;23.350;2023-04-03T02:20:52;12.47;;;10.13;;
23163;SDS011;31429;42.674;23.350;2023-04-03T02:21:53;11.80;;;9.47;;
23163;SDS011;31429;42.674;23.350;2023-04-03T02:22:53;11.77;;;8.80;;
23163;SDS011;31429;42.674;23.350;2023-04-03T02:23:54;15.63;;;9.17;;
23163;SDS011;31429;42.674;23.350;2023-04-03T02:24:55;11.80;;;8.43;;
23163;SDS011;31429;42.674;23.350;2023-04-03T02:26:02;15.57;;;8.97;;
23163;SDS011;31429;42.674;23.350;2023-04-03T02:27:04;16.30;;;9.18;;
23163;SDS011;31429;42.674;23.350;2023-04-03T02:28:04;13.80;;;9.10;;
23163;SDS011;31429;42.674;23.350;2023-04-03T02:29:05;10.35;;;9.05;;
23163;SDS011;31429;42.674;23.350;2023-04-03T02:30:06;16.30;;;9.70;;
23163;SDS011;31429;42.674;23.350;2023-04-03T02:31:09;13.10;;;9.00;;
23163;SDS011;31429;42.674;23.350;2023-04-03T02:32:10;13.30;;;9.07;;
23163;SDS011;31429;42.674;23.350;2023-04-03T02:33:12;13.03;;;8.83;;
23163;SDS011;31429;42.674;23.350;2023-04-03T02:34:13;13.05;;;8.70;;
23163;SDS011;31429;42.674;23.350;2023-04-03T02:35:14;14.00;;;9.10;;
23163;SDS011;31429;42.674;23.350;2023-04-03T02:36:15;12.75;;;8.50;;
23163;SDS011;31429;42.674;23.350;2023-04-03T02:37:16;10.67;;;9.00;;
23163;SDS011;31429;42.674;23.350;2023-04-03T02:38:16;12.80;;;9.13;;
23163;SDS011;31429;42.674;23.350;2023-04-03T02:39:17;15.70;;;9.60;;
23163;SDS011;31429;42.674;23.350;2023-04-03T02:40:18;13.37;;;8.80;;
23163;SDS011;31429;42.674;23.350;2023-04-03T02:41:18;12.10;;;8.70;;
23163;SDS011;31429;42.674;23.350;2023-04-03T02:42:21;11.30;;;7.97;;
23163;SDS011;31429;42.674;23.350;2023-04-03T02:43:21;8.97;;;7.77;;
23163;SDS011;31429;42.674;23.350;2023-04-03T02:44:22;10.67;;;8.37;;
23163;SDS011;31429;42.674;23.350;2023-04-03T02:45:23;13.18;;;8.15;;
23163;SDS011;31429;42.674;23.350;2023-04-03T02:46:24;9.03;;;8.13;;
23163;SDS011;31429;42.674;23.350;2023-04-03T02:47:25;11.17;;;8.73;;
23163;SDS011;31429;42.674;23.350;2023-04-03T02:48:27;12.00;;;8.67;;
23163;SDS011;31429;42.674;23.350;2023-04-03T02:49:28;9.88;;;7.93;;
23163;SDS011;31429;42.674;23.350;2023-04-03T02:50:28;10.60;;;8.30;;
23163;SDS011;31429;42.674;23.350;2023-04-03T02:51:29;13.90;;;8.27;;
23163;SDS011;31429;42.674;23.350;2023-04-03T02:52:30;11.33;;;8.07;;
23163;SDS011;31429;42.674;23.350;2023-04-03T02:53:30;15.03;;;8.30;;
23163;SDS011;31429;42.674;23.350;2023-04-03T02:54:31;9.53;;;8.47;;
23163;SDS011;31429;42.674;23.350;2023-04-03T02:55:32;14.03;;;10.07;;
23163;SDS011;31429;42.674;23.350;2023-04-03T02:56:32;15.03;;;9.93;;
23163;SDS011;31429;42.674;23.350;2023-04-03T02:57:33;11.73;;;8.93;;
23163;SDS011;31429;42.674;23.350;2023-04-03T02:58:34;11.93;;;8.40;;
23163;SDS011;31429;42.674;23.350;2023-04-03T02:59:35;13.57;;;10.25;;
23163;SDS011;31429;42.674;23.350;2023-04-03T03:00:36;13.63;;;8.88;;
23163;SDS011;31429;42.674;23.350;2023-04-03T03:01:37;12.38;;;8.50;;
23163;SDS011;31429;42.674;23.350;2023-04-03T03:02:38;14.87;;;9.57;;
23163;SDS011;31429;42.674;23.350;2023-04-03T03:03:40;11.97;;;8.93;;
23163;SDS011;31429;42.674;23.350;2023-04-03T03:04:41;18.33;;;10.02;;
23163;SDS011;31429;42.674;23.350;2023-04-03T03:05:42;14.18;;;10.10;;
23163;SDS011;31429;42.674;23.350;2023-04-03T03:06:43;14.50;;;9.70;;
23163;SDS011;31429;42.674;23.350;2023-04-03T03:07:43;20.80;;;10.00;;
23163;SDS011;31429;42.674;23.350;2023-04-03T03:08:44;14.30;;;9.50;;
23163;SDS011;31429;42.674;23.350;2023-04-03T03:09:45;15.07;;;8.47;;
23163;SDS011;31429;42.674;23.350;2023-04-03T03:10:45;16.97;;;12.13;;
23163;SDS011;31429;42.674;23.350;2023-04-03T03:11:46;13.40;;;11.03;;
23163;SDS011;31429;42.674;23.350;2023-04-03T03:12:46;13.57;;;10.37;;
23163;SDS011;31429;42.674;23.350;2023-04-03T03:13:47;13.47;;;9.27;;
23163;SDS011;31429;42.674;23.350;2023-04-03T03:14:48;14.83;;;10.27;;
23163;SDS011;31429;42.674;23.350;2023-04-03T03:15:49;13.83;;;9.50;;
23163;SDS011;31429;42.674;23.350;2023-04-03T03:16:49;15.07;;;11.07;;
23163;SDS011;31429;42.674;23.350;2023-04-03T03:17:50;12.93;;;9.93;;
23163;SDS011;31429;42.674;23.350;2023-04-03T03:18:52;14.97;;;11.00;;
23163;SDS011;31429;42.674;23.350;2023-04-03T03:19:53;13.35;;;10.30;;
23163;SDS011;31429;42.674;23.350;2023-04-03T03:20:53;15.27;;;11.37;;
23163;SDS011;31429;42.674;23.350;2023-04-03T03:21:55;11.70;;;10.07;;
23163;SDS011;31429;42.674;23.350;2023-04-03T03:22:57;13.73;;;11.07;;
23163;SDS011;31429;42.674;23.350;2023-04-03T03:23:57;16.10;;;11.50;;
23163;SDS011;31429;42.674;23.350;2023-04-03T03:24:58;16.70;;;11.60;;
23163;SDS011;31429;42.674;23.350;2023-04-03T03:25:59;14.23;;;10.00;;
23163;SDS011;31429;42.674;23.350;2023-04-03T03:27:02;17.17;;;9.70;;
23163;SDS011;31429;42.674;23.350;2023-04-03T03:28:03;12.95;;;9.95;;
23163;SDS011;31429;42.674;23.350;2023-04-03T03:29:03;13.27;;;10.43;;
23163;SDS011;31429;42.674;23.350;2023-04-03T03:30:05;20.57;;;12.93;;
23163;SDS011;31429;42.674;23.350;2023-04-03T03:31:07;16.90;;;12.63;;
23163;SDS011;31429;42.674;23.350;2023-04-03T03:32:08;17.30;;;12.15;;
23163;SDS011;31429;42.674;23.350;2023-04-03T03:33:09;15.67;;;11.77;;
23163;SDS011;31429;42.674;23.350;2023-04-03T03:34:11;14.90;;;12.13;;
23163;SDS011;31429;42.674;23.350;2023-04-03T03:35:12;15.50;;;11.75;;
23163;SDS011;31429;42.674;23.350;2023-04-03T03:36:12;16.17;;;10.93;;
23163;SDS011;31429;42.674;23.350;2023-04-03T03:37:13;13.97;;;10.70;;
23163;SDS011;31429;42.674;23.350;2023-04-03T03:38:14;16.83;;;11.27;;
23163;SDS011;31429;42.674;23.350;2023-04-03T03:39:15;15.67;;;11.77;;
23163;SDS011;31429;42.674;23.350;2023-04-03T03:40:15;13.80;;;11.27;;
23163;SDS011;31429;42.674;23.350;2023-04-03T03:41:16;13.03;;;11.60;;
23163;SDS011;31429;42.674;23.350;2023-04-03T03:42:17;14.93;;;11.97;;
23163;SDS011;31429;42.674;23.350;2023-04-03T03:43:17;15.07;;;11.20;;
23163;SDS011;31429;42.674;23.350;2023-04-03T03:44:18;16.97;;;11.97;;
23163;SDS011;31429;42.674;23.350;2023-04-03T03:45:19;20.23;;;12.47;;
23163;SDS011;31429;42.674;23.350;2023-04-03T03:46:20;21.80;;;12.27;;
23163;SDS011;31429;42.674;23.350;2023-04-03T03:47:20;15.63;;;11.87;;
23163;SDS011;31429;42.674;23.350;2023-04-03T03:48:21;18.63;;;11.13;;
23163;SDS011;31429;42.674;23.350;2023-04-03T03:49:24;18.83;;;13.05;;
23163;SDS011;31429;42.674;23.350;2023-04-03T03:50:24;16.67;;;12.13;;
23163;SDS011;31429;42.674;23.350;2023-04-03T03:51:25;18.70;;;12.10;;
23163;SDS011;31429;42.674;23.350;2023-04-03T03:52:26;16.63;;;12.30;;
23163;SDS011;31429;42.674;23.350;2023-04-03T03:53:26;21.77;;;13.43;;
23163;SDS011;31429;42.674;23.350;2023-04-03T03:54:27;19.50;;;12.73;;
23163;SDS011;31429;42.674;23.350;2023-04-03T03:55:27;17.00;;;12.67;;
23163;SDS011;31429;42.674;23.350;2023-04-03T03:56:28;15.13;;;11.80;;
23163;SDS011;31429;42.674;23.350;2023-04-03T03:57:29;14.67;;;11.67;;
23163;SDS011;31429;42.674;23.350;2023-04-03T03:58:30;16.98;;;11.90;;
23163;SDS011;31429;42.674;23.350;2023-04-03T03:59:31;18.77;;;12.87;;
23163;SDS011;31429;42.674;23.350;2023-04-03T04:00:32;13.20;;;11.38;;
23163;SDS011;31429;42.674;23.350;2023-04-03T04:01:33;17.50;;;11.83;;
23163;SDS011;31429;42.674;23.350;2023-04-03T04:02:33;16.27;;;12.03;;
23163;SDS011;31429;42.674;23.350;2023-04-03T04:03:34;17.97;;;12.40;;
23163;SDS011;31429;42.674;23.350;2023-04-03T04:04:36;17.33;;;11.87;;
23163;SDS011;31429;42.674;23.350;2023-04-03T04:05:37;20.90;;;13.18;;
23163;SDS011;31429;42.674;23.350;2023-04-03T04:06:37;16.53;;;12.40;;
23163;SDS011;31429;42.674;23.350;2023-04-03T04:07:38;22.30;;;13.53;;
23163;SDS011;31429;42.674;23.350;2023-04-03T04:08:39;20.23;;;13.17;;
23163;SDS011;31429;42.674;23.350;2023-04-03T04:09:39;22.50;;;13.70;;
23163;SDS011;31429;42.674;23.350;2023-04-03T04:10:40;24.20;;;12.30;;
23163;SDS011;31429;42.674;23.350;2023-04-03T04:11:41;17.97;;;13.03;;
23163;SDS011;31429;42.674;23.350;2023-04-03T04:12:41;24.23;;;13.47;;
23163;SDS011;31429;42.674;23.350;2023-04-03T04:13:42;25.47;;;13.53;;
23163;SDS011;31429;42.674;23.350;2023-04-03T04:14:42;23.07;;;14.20;;
23163;SDS011;31429;42.674;23.350;2023-04-03T04:15:46;27.55;;;17.77;;
23163;SDS011;31429;42.674;23.350;2023-04-03T04:16:47;27.47;;;17.67;;
23163;SDS011;31429;42.674;23.350;2023-04-03T04:17:48;26.20;;;14.17;;
23163;SDS011;31429;42.674;23.350;2023-04-03T04:18:48;24.67;;;17.83;;
23163;SDS011;31429;42.674;23.350;2023-04-03T04:19:50;35.00;;;21.23;;
23163;SDS011;31429;42.674;23.350;2023-04-03T04:20:51;50.72;;;30.50;;
23163;SDS011;31429;42.674;23.350;2023-04-03T04:21:52;73.67;;;46.13;;
23163;SDS011;31429;42.674;23.350;2023-04-03T04:22:52;48.63;;;29.37;;
23163;SDS011;31429;42.674;23.350;2023-04-03T04:23:53;37.03;;;21.00;;
23163;SDS011;31429;42.674;23.350;2023-04-03T04:24:54;27.70;;;16.17;;
23163;SDS011;31429;42.674;23.350;2023-04-03T04:25:54;26.57;;;15.63;;
23163;SDS011;31429;42.674;23.350;2023-04-03T04:26:55;35.00;;;15.40;;
23163;SDS011;31429;42.674;23.350;2023-04-03T04:27:56;31.33;;;17.20;;
23163;SDS011;31429;42.674;23.350;2023-04-03T04:28:56;25.00;;;14.07;;
23163;SDS011;31429;42.674;23.350;2023-04-03T04:29:57;44.70;;;25.03;;
23163;SDS011;31429;42.674;23.350;2023-04-03T04:30:58;60.93;;;36.67;;
23163;SDS011;31429;42.674;23.350;2023-04-03T04:31:58;48.60;;;28.87;;
23163;SDS011;31429;42.674;23.350;2023-04-03T04:32:59;43.63;;;26.20;;
23163;SDS011;31429;42.674;23.350;2023-04-03T04:34:00;24.13;;;14.50;;
23163;SDS011;31429;42.674;23.350;2023-04-03T04:35:02;30.90;;;16.10;;
23163;SDS011;31429;42.674;23.350;2023-04-03T04:36:04;35.22;;;19.00;;
23163;SDS011;31429;42.674;23.350;2023-04-03T04:37:05;27.17;;;16.95;;
23163;SDS011;31429;42.674;23.350;2023-04-03T04:38:05;30.07;;;15.47;;
23163;SDS011;31429;42.674;23.350;2023-04-03T04:39:06;22.92;;;14.05;;
23163;SDS011;31429;42.674;23.350;2023-04-03T04:40:07;26.63;;;14.03;;
23163;SDS011;31429;42.674;23.350;2023-04-03T04:41:09;26.27;;;13.75;;
23163;SDS011;31429;42.674;23.350;2023-04-03T04:42:09;21.53;;;13.97;;
23163;SDS011;31429;42.674;23.350;2023-04-03T04:43:12;23.17;;;14.00;;
23163;SDS011;31429;42.674;23.350;2023-04-03T04:44:14;28.67;;;15.20;;
23163;SDS011;31429;42.674;23.350;2023-04-03T04:45:15;26.93;;;16.07;;
23163;SDS011;31429;42.674;23.350;2023-04-03T04:46:16;23.50;;;15.27;;
23163;SDS011;31429;42.674;23.350;2023-04-03T04:47:17;24.08;;;15.57;;
23163;SDS011;31429;42.674;23.350;2023-04-03T04:48:18;28.03;;;15.73;;
23163;SDS011;31429;42.674;23.350;2023-04-03T04:49:18;26.37;;;14.67;;
23163;SDS011;31429;42.674;23.350;2023-04-03T04:50:20;25.27;;;14.97;;
23163;SDS011;31429;42.674;23.350;2023-04-03T04:51:21;21.08;;;12.88;;
23163;SDS011;31429;42.674;23.350;2023-04-03T04:52:22;24.20;;;13.27;;
23163;SDS011;31429;42.674;23.350;2023-04-03T04:53:22;28.97;;;12.60;;
23163;SDS011;31429;42.674;23.350;2023-04-03T04:54:23;23.43;;;13.17;;
23163;SDS011;31429;42.674;23.350;2023-04-03T04:55:24;29.70;;;12.80;;
23163;SDS011;31429;42.674;23.350;2023-04-03T04:56:25;22.70;;;12.03;;
23163;SDS011;31429;42.674;23.350;2023-04-03T04:57:26;27.55;;;13.27;;
23163;SDS011;31429;42.674;23.350;2023-04-03T04:58:26;23.63;;;14.70;;
23163;SDS011;31429;42.674;23.350;2023-04-03T04:59:27;32.97;;;14.43;;
23163;SDS011;31429;42.674;23.350;2023-04-03T05:00:28;27.77;;;13.93;;
23163;SDS011;31429;42.674;23.350;2023-04-03T05:01:28;27.83;;;14.33;;
23163;SDS011;31429;42.674;23.350;2023-04-03T05:02:29;25.63;;;14.17;;
23163;SDS011;31429;42.674;23.350;2023-04-03T05:03:30;25.47;;;13.87;;
23163;SDS011;31429;42.674;23.350;2023-04-03T05:04:31;28.70;;;15.57;;
23163;SDS011;31429;42.674;23.350;2023-04-03T05:05:34;28.20;;;15.23;;
23163;SDS011;31429;42.674;23.350;2023-04-03T05:06:35;25.55;;;14.73;;
23163;SDS011;31429;42.674;23.350;2023-04-03T05:07:36;29.20;;;15.20;;
23163;SDS011;31429;42.674;23.350;2023-04-03T05:08:36;23.57;;;14.00;;
23163;SDS011;31429;42.674;23.350;2023-04-03T05:09:37;22.40;;;14.17;;
23163;SDS011;31429;42.674;23.350;2023-04-03T05:10:38;27.47;;;13.23;;
23163;SDS011;31429;42.674;23.350;2023-04-03T05:11:40;26.02;;;13.95;;
23163;SDS011;31429;42.674;23.350;2023-04-03T05:12:41;25.10;;;12.52;;
23163;SDS011;31429;42.674;23.350;2023-04-03T05:13:42;18.47;;;12.20;;
23163;SDS011;31429;42.674;23.350;2023-04-03T05:14:43;25.77;;;13.33;;
23163;SDS011;31429;42.674;23.350;2023-04-03T05:15:43;23.47;;;13.33;;
23163;SDS011;31429;42.674;23.350;2023-04-03T05:16:44;27.10;;;14.13;;
23163;SDS011;31429;42.674;23.350;2023-04-03T05:17:45;21.97;;;13.20;;
23163;SDS011;31429;42.674;23.350;2023-04-03T05:18:45;25.70;;;14.03;;
23163;SDS011;31429;42.674;23.350;2023-04-03T05:19:46;20.97;;;13.27;;
23163;SDS011;31429;42.674;23.350;2023-04-03T05:20:49;20.37;;;13.00;;
23163;SDS011;31429;42.674;23.350;2023-04-03T05:21:50;18.55;;;12.40;;
23163;SDS011;31429;42.674;23.350;2023-04-03T05:22:51;19.47;;;13.03;;
23163;SDS011;31429;42.674;23.350;2023-04-03T05:23:52;26.50;;;13.23;;
23163;SDS011;31429;42.674;23.350;2023-04-03T05:24:52;27.30;;;13.40;;
23163;SDS011;31429;42.674;23.350;2023-04-03T05:25:53;28.93;;;14.47;;
23163;SDS011;31429;42.674;23.350;2023-04-03T05:26:54;30.27;;;14.07;;
23163;SDS011;31429;42.674;23.350;2023-04-03T05:27:54;23.87;;;13.33;;
23163;SDS011;31429;42.674;23.350;2023-04-03T05:28:55;21.90;;;13.07;;
23163;SDS011;31429;42.674;23.350;2023-04-03T05:29:56;22.23;;;14.93;;
23163;SDS011;31429;42.674;23.350;2023-04-03T05:30:57;27.35;;;18.05;;
23163;SDS011;31429;42.674;23.350;2023-04-03T05:31:58;23.70;;;13.73;;
23163;SDS011;31429;42.674;23.350;2023-04-03T05:32:59;22.30;;;13.60;;
23163;SDS011;31429;42.674;23.350;2023-04-03T05:34:00;25.10;;;14.03;;
23163;SDS011;31429;42.674;23.350;2023-04-03T05:35:00;24.63;;;13.17;;
23163;SDS011;31429;42.674;23.350;2023-04-03T05:36:03;19.70;;;11.93;;
23163;SDS011;31429;42.674;23.350;2023-04-03T05:37:05;19.40;;;12.20;;
23163;SDS011;31429;42.674;23.350;2023-04-03T05:38:05;26.47;;;13.17;;
23163;SDS011;31429;42.674;23.350;2023-04-03T05:39:06;21.97;;;12.60;;
23163;SDS011;31429;42.674;23.350;2023-04-03T05:40:07;22.90;;;12.67;;
23163;SDS011;31429;42.674;23.350;2023-04-03T05:41:08;25.10;;;16.83;;
23163;SDS011;31429;42.674;23.350;2023-04-03T05:42:09;24.53;;;16.93;;
23163;SDS011;31429;42.674;23.350;2023-04-03T05:43:11;21.48;;;14.45;;
23163;SDS011;31429;42.674;23.350;2023-04-03T05:44:12;19.93;;;12.50;;
23163;SDS011;31429;42.674;23.350;2023-04-03T05:45:13;20.07;;;12.07;;
23163;SDS011;31429;42.674;23.350;2023-04-03T05:46:16;20.50;;;11.27;;
23163;SDS011;31429;42.674;23.350;2023-04-03T05:47:18;16.80;;;11.88;;
23163;SDS011;31429;42.674;23.350;2023-04-03T05:48:19;21.20;;;12.40;;
23163;SDS011;31429;42.674;23.350;2023-04-03T05:49:20;24.20;;;12.60;;
23163;SDS011;31429;42.674;23.350;2023-04-03T05:50:21;19.13;;;12.03;;
23163;SDS011;31429;42.674;23.350;2023-04-03T05:51:24;20.93;;;12.83;;
23163;SDS011;31429;42.674;23.350;2023-04-03T05:52:28;22.02;;;12.38;;
23163;SDS011;31429;42.674;23.350;2023-04-03T05:53:33;22.85;;;12.88;;
23163;SDS011;31429;42.674;23.350;2023-04-03T05:54:38;19.17;;;12.43;;
23163;SDS011;31429;42.674;23.350;2023-04-03T05:55:38;22.88;;;13.25;;
23163;SDS011;31429;42.674;23.350;2023-04-03T05:56:39;24.30;;;14.57;;
23163;SDS011;31429;42.674;23.350;2023-04-03T05:57:39;28.87;;;15.13;;
23163;SDS011;31429;42.674;23.350;2023-04-03T05:58:40;25.10;;;14.57;;